createdAt,value
2023-02-20T00:00:51.050Z,13.97
2023-02-20T00:02:54.136Z,15.20
2023-02-20T00:04:57.205Z,15.10
2023-02-20T00:07:00.378Z,15.03
2023-02-20T00:09:03.229Z,15.13
2023-02-20T00:11:06.432Z,14.57
2023-02-20T00:13:09.338Z,15.87
2023-02-20T00:15:16.117Z,15.33
2023-02-20T00:17:20.411Z,14.37
2023-02-20T00:19:23.316Z,13.40
2023-02-20T00:21:26.207Z,12.87
2023-02-20T00:23:28.940Z,12.33
2023-02-20T00:25:31.775Z,12.37
2023-02-20T00:27:34.518Z,12.07
2023-02-20T00:29:37.762Z,11.50
2023-02-20T00:31:40.495Z,11.13
2023-02-20T00:33:45.009Z,10.60
2023-02-20T00:35:47.841Z,10.67
2023-02-20T00:37:51.334Z,10.80
2023-02-20T00:39:54.151Z,10.20
2023-02-20T00:41:57.293Z,9.37
2023-02-20T00:44:00.164Z,9.67
2023-02-20T00:46:02.894Z,8.93
2023-02-20T00:48:06.521Z,9.00
2023-02-20T00:50:12.127Z,8.37
2023-02-20T00:52:16.242Z,8.30
2023-02-20T00:54:19.066Z,8.70
2023-02-20T00:56:21.838Z,8.20
2023-02-20T00:58:24.560Z,8.33
2023-02-20T01:00:29.600Z,8.70
2023-02-20T01:02:32.443Z,8.07
2023-02-20T01:04:35.252Z,8.00
2023-02-20T01:06:39.332Z,7.90
2023-02-20T01:08:42.104Z,8.10
2023-02-20T01:10:44.979Z,7.80
2023-02-20T01:12:47.818Z,8.00
2023-02-20T01:14:50.654Z,7.70
2023-02-20T01:16:54.578Z,7.97
2023-02-20T01:18:57.585Z,7.83
2023-02-20T01:21:00.447Z,7.10
2023-02-20T01:23:04.942Z,6.80
2023-02-20T01:25:08.075Z,7.17
2023-02-20T01:27:11.523Z,6.60
2023-02-20T01:29:14.548Z,7.53
2023-02-20T01:31:17.725Z,7.07
2023-02-20T01:33:20.580Z,6.80
2023-02-20T01:35:23.373Z,7.63
2023-02-20T01:37:26.215Z,7.13
2023-02-20T01:39:31.346Z,7.57
2023-02-20T01:41:34.210Z,7.03
2023-02-20T01:43:37.049Z,7.30
2023-02-20T01:45:41.132Z,6.67
2023-02-20T01:47:43.925Z,6.70
2023-02-20T01:49:51.946Z,6.70
2023-02-20T01:52:01.515Z,7.23
2023-02-20T01:54:05.130Z,7.30
2023-02-20T01:56:12.541Z,6.60
2023-02-20T01:58:18.560Z,7.27
2023-02-20T02:00:24.265Z,6.90
2023-02-20T02:02:31.524Z,6.23
2023-02-20T02:04:37.207Z,6.87
2023-02-20T02:06:44.662Z,7.50
2023-02-20T02:08:47.828Z,6.43
2023-02-20T02:10:58.145Z,7.23
2023-02-20T02:13:03.097Z,6.27
2023-02-20T02:15:14.689Z,6.73
2023-02-20T02:17:34.551Z,6.70
2023-02-20T02:20:11.987Z,7.93
2023-02-20T02:22:39.377Z,7.03
2023-02-20T02:25:10.366Z,7.33
2023-02-20T02:27:55.648Z,7.20
2023-02-20T02:30:27.837Z,6.37
2023-02-20T02:33:05.552Z,6.73
2023-02-20T02:35:43.493Z,7.40
2023-02-20T02:37:59.166Z,7.10
2023-02-20T02:40:05.240Z,6.77
2023-02-20T02:42:14.498Z,7.10
2023-02-20T02:44:22.945Z,6.37
2023-02-20T02:46:31.109Z,6.30
2023-02-20T02:48:37.940Z,6.43
2023-02-20T02:50:44.372Z,6.60
2023-02-20T02:52:49.862Z,6.60
2023-02-20T02:54:52.691Z,6.80
2023-02-20T02:57:15.966Z,6.70
2023-02-20T02:59:22.797Z,7.10
2023-02-20T03:01:25.646Z,6.80
2023-02-20T03:03:31.546Z,6.83
2023-02-20T03:05:46.346Z,6.97
2023-02-20T03:07:54.365Z,6.80
2023-02-20T03:10:01.759Z,7.37
2023-02-20T03:12:07.548Z,7.00
2023-02-20T03:14:33.064Z,6.70
2023-02-20T03:16:43.152Z,7.43
2023-02-20T03:18:47.836Z,7.40
2023-02-20T03:20:55.044Z,7.43
2023-02-20T03:23:01.861Z,7.87
2023-02-20T03:25:11.354Z,6.63
2023-02-20T03:27:14.405Z,6.90
2023-02-20T03:29:24.339Z,7.80
2023-02-20T03:31:32.970Z,7.40
2023-02-20T03:33:57.461Z,7.03
2023-02-20T03:36:20.318Z,6.80
2023-02-20T03:38:43.537Z,7.10
2023-02-20T03:41:04.127Z,6.97
2023-02-20T03:43:24.975Z,6.80
2023-02-20T03:45:29.122Z,6.70
2023-02-20T03:47:35.689Z,7.00
2023-02-20T03:49:59.310Z,7.03
2023-02-20T03:52:02.175Z,6.90
2023-02-20T03:54:06.658Z,6.53
2023-02-20T03:56:12.881Z,7.00
2023-02-20T03:58:19.859Z,7.17
2023-02-20T04:00:26.482Z,7.30
2023-02-20T04:02:34.207Z,7.60
2023-02-20T04:04:41.696Z,6.67
2023-02-20T04:06:45.908Z,7.37
2023-02-20T04:08:55.905Z,8.23
2023-02-20T04:11:04.135Z,7.40
2023-02-20T04:13:07.769Z,7.83
2023-02-20T04:15:11.050Z,7.43
2023-02-20T04:17:18.095Z,7.37
2023-02-20T04:19:20.995Z,7.70
2023-02-20T04:21:30.930Z,6.87
2023-02-20T04:23:38.992Z,7.47
2023-02-20T04:25:45.731Z,7.33
2023-02-20T04:27:50.160Z,7.00
2023-02-20T04:29:54.297Z,7.43
2023-02-20T04:31:57.343Z,7.67
2023-02-20T04:34:00.591Z,7.70
2023-02-20T04:36:03.521Z,7.50
2023-02-20T04:38:07.000Z,7.73
2023-02-20T04:40:10.660Z,7.87
2023-02-20T04:42:13.863Z,8.70
2023-02-20T04:44:33.914Z,8.60
2023-02-20T04:46:36.684Z,7.30
2023-02-20T04:48:39.732Z,8.03
2023-02-20T04:50:42.789Z,8.40
2023-02-20T04:52:45.654Z,8.30
2023-02-20T04:54:49.388Z,8.73
2023-02-20T04:56:52.899Z,9.13
2023-02-20T04:58:58.451Z,8.97
2023-02-20T05:01:02.670Z,9.10
2023-02-20T05:03:05.728Z,9.73
2023-02-20T05:05:17.818Z,9.13
2023-02-20T05:07:20.713Z,9.17
2023-02-20T05:09:24.268Z,10.60
2023-02-20T05:11:27.342Z,9.67
2023-02-20T05:13:30.178Z,9.43
2023-02-20T05:15:33.485Z,10.30
2023-02-20T05:17:38.826Z,10.27
2023-02-20T05:19:41.648Z,9.83
2023-02-20T05:22:02.590Z,9.87
2023-02-20T05:24:09.324Z,10.57
2023-02-20T05:26:14.257Z,9.70
2023-02-20T05:28:17.216Z,10.30
2023-02-20T05:30:20.182Z,9.90
2023-02-20T05:32:25.555Z,10.13
2023-02-20T05:34:29.976Z,10.33
2023-02-20T05:36:32.764Z,11.07
2023-02-20T05:38:35.559Z,10.50
2023-02-20T05:40:38.367Z,11.03
2023-02-20T05:42:42.606Z,10.80
2023-02-20T05:44:45.716Z,11.40
2023-02-20T05:46:48.557Z,11.03
2023-02-20T05:48:53.602Z,10.67
2023-02-20T05:50:57.753Z,10.87
2023-02-20T05:53:00.649Z,10.93
2023-02-20T05:55:03.673Z,11.40
2023-02-20T05:57:06.625Z,11.37
2023-02-20T05:59:09.687Z,11.27
2023-02-20T06:01:18.605Z,12.50
2023-02-20T06:03:21.349Z,11.23
2023-02-20T06:05:24.649Z,12.43
2023-02-20T06:07:29.114Z,12.03
2023-02-20T06:09:31.951Z,12.60
2023-02-20T06:11:35.243Z,12.10
2023-02-20T06:13:38.118Z,12.27
2023-02-20T06:15:40.963Z,13.00
2023-02-20T06:17:46.208Z,12.83
2023-02-20T06:19:50.367Z,13.13
2023-02-20T06:21:54.531Z,12.80
2023-02-20T06:23:58.707Z,12.60
2023-02-20T06:26:01.501Z,12.90
2023-02-20T06:28:04.597Z,12.57
2023-02-20T06:30:08.293Z,12.43
2023-02-20T06:32:11.430Z,13.00
2023-02-20T06:34:15.333Z,12.03
2023-02-20T06:36:22.308Z,12.30
2023-02-20T06:38:25.555Z,12.43
2023-02-20T06:40:30.220Z,12.57
2023-02-20T06:42:33.018Z,11.90
2023-02-20T06:44:35.888Z,11.73
2023-02-20T06:46:38.733Z,11.80
2023-02-20T06:48:46.178Z,12.17
2023-02-20T06:50:48.930Z,11.80
2023-02-20T06:52:52.014Z,11.90
2023-02-20T06:54:54.943Z,12.27
2023-02-20T06:57:27.482Z,12.00
2023-02-20T06:59:30.586Z,11.17
2023-02-20T07:01:40.529Z,11.87
2023-02-20T07:03:44.976Z,10.53
2023-02-20T07:05:48.164Z,11.83
2023-02-20T07:07:50.898Z,11.03
2023-02-20T07:09:53.714Z,11.43
2023-02-20T07:11:57.936Z,10.37
2023-02-20T07:14:02.043Z,10.97
2023-02-20T07:16:06.356Z,9.67
2023-02-20T07:18:09.160Z,11.37
2023-02-20T07:20:12.137Z,11.00
2023-02-20T07:22:15.118Z,11.23
2023-02-20T07:24:18.119Z,10.80
2023-02-20T07:26:21.898Z,10.83
2023-02-20T07:28:25.041Z,10.63
2023-02-20T07:30:29.522Z,11.23
2023-02-20T07:32:32.588Z,11.47
2023-02-20T07:34:35.319Z,10.93
2023-02-20T07:36:38.469Z,11.47
2023-02-20T07:38:41.822Z,11.43
2023-02-20T07:40:44.833Z,11.83
2023-02-20T07:42:50.723Z,11.17
2023-02-20T07:44:53.522Z,10.53
2023-02-20T07:46:57.765Z,10.93
2023-02-20T07:49:01.202Z,11.07
2023-02-20T07:51:04.307Z,11.87
2023-02-20T07:53:07.307Z,10.43
2023-02-20T07:55:10.163Z,9.93
2023-02-20T07:57:13.404Z,10.30
2023-02-20T07:59:16.191Z,10.20
2023-02-20T08:01:20.241Z,10.33
2023-02-20T08:03:24.622Z,10.60
2023-02-20T08:05:32.805Z,10.37
2023-02-20T08:07:40.400Z,10.47
2023-02-20T08:09:43.267Z,10.50
2023-02-20T08:11:46.096Z,10.67
2023-02-20T08:13:49.384Z,10.40
2023-02-20T08:15:52.217Z,9.20
2023-02-20T08:17:55.070Z,9.87
2023-02-20T08:19:59.254Z,9.43
2023-02-20T08:22:02.059Z,9.00
2023-02-20T08:24:06.498Z,9.13
2023-02-20T08:26:09.568Z,8.80
2023-02-20T08:28:12.481Z,8.57
2023-02-20T08:30:17.466Z,8.60
2023-02-20T08:32:20.364Z,7.83
2023-02-20T08:34:23.444Z,8.60
2023-02-20T08:36:27.749Z,8.87
2023-02-20T08:38:34.251Z,8.50
2023-02-20T08:40:37.132Z,9.53
2023-02-20T08:42:40.409Z,9.30
2023-02-20T08:44:43.281Z,10.03
2023-02-20T08:46:49.673Z,8.10
2023-02-20T08:48:52.459Z,7.87
2023-02-20T08:50:55.558Z,7.40
2023-02-20T08:52:59.986Z,8.90
2023-02-20T08:55:06.226Z,7.23
2023-02-20T08:57:09.034Z,7.80
2023-02-20T08:59:11.849Z,8.07
2023-02-20T09:01:14.638Z,7.43
2023-02-20T09:03:18.046Z,7.70
2023-02-20T09:05:22.230Z,7.60
2023-02-20T09:07:25.402Z,7.20
2023-02-20T09:09:31.031Z,6.90
2023-02-20T09:11:34.319Z,6.97
2023-02-20T09:13:43.139Z,7.27
2023-02-20T09:15:46.089Z,6.27
2023-02-20T09:17:49.716Z,6.77
2023-02-20T09:19:52.675Z,6.83
2023-02-20T09:21:56.665Z,7.43
2023-02-20T09:23:59.416Z,7.10
2023-02-20T09:26:04.073Z,6.50
2023-02-20T09:28:07.034Z,7.07
2023-02-20T09:30:12.413Z,7.23
2023-02-20T09:32:15.853Z,7.20
2023-02-20T09:34:18.689Z,6.57
2023-02-20T09:36:21.387Z,6.60
2023-02-20T09:38:27.553Z,6.40
2023-02-20T09:40:32.220Z,6.20
2023-02-20T09:42:44.502Z,5.93
2023-02-20T09:44:59.302Z,6.10
2023-02-20T09:47:07.489Z,6.07
2023-02-20T09:49:14.584Z,5.77
2023-02-20T09:51:22.734Z,6.00
2023-02-20T09:53:31.822Z,6.13
2023-02-20T09:55:39.787Z,5.77
2023-02-20T09:57:47.150Z,5.73
2023-02-20T09:59:53.434Z,5.43
2023-02-20T10:02:01.101Z,5.33
2023-02-20T10:04:08.678Z,5.50
2023-02-20T10:06:17.417Z,5.70
2023-02-20T10:08:22.239Z,5.80
2023-02-20T10:10:29.466Z,6.17
2023-02-20T10:12:36.913Z,5.63
2023-02-20T10:15:08.758Z,5.97
2023-02-20T10:17:21.733Z,5.80
2023-02-20T10:19:34.469Z,6.20
2023-02-20T10:21:53.042Z,6.30
2023-02-20T10:24:06.128Z,5.90
2023-02-20T10:26:14.296Z,5.73
2023-02-20T10:28:19.351Z,5.80
2023-02-20T10:30:29.240Z,5.47
2023-02-20T10:32:39.963Z,5.90
2023-02-20T10:34:49.935Z,5.80
2023-02-20T10:36:57.606Z,5.60
2023-02-20T10:39:06.690Z,5.53
2023-02-20T10:41:15.782Z,5.50
2023-02-20T10:43:23.220Z,5.53
2023-02-20T10:45:38.069Z,5.90
2023-02-20T10:47:46.313Z,5.90
2023-02-20T10:49:53.941Z,6.13
2023-02-20T10:52:00.775Z,6.37
2023-02-20T10:54:10.110Z,5.90
2023-02-20T10:56:18.624Z,6.28
2023-02-20T10:58:27.465Z,6.20
2023-02-20T11:00:36.860Z,6.53
2023-02-20T11:02:44.980Z,6.70
2023-02-20T11:04:55.715Z,6.35
2023-02-20T11:07:02.613Z,6.13
2023-02-20T11:09:05.843Z,6.40
2023-02-20T11:11:24.472Z,5.93
2023-02-20T11:13:27.666Z,5.40
2023-02-20T11:15:36.569Z,6.00
2023-02-20T11:17:41.346Z,6.72
2023-02-20T11:19:48.596Z,6.13
2023-02-20T11:21:52.386Z,6.65
2023-02-20T11:23:56.936Z,7.03
2023-02-20T11:26:17.934Z,5.63
2023-02-20T11:28:23.698Z,6.18
2023-02-20T11:30:33.388Z,6.68
2023-02-20T11:32:37.959Z,6.78
2023-02-20T11:34:40.864Z,6.70
2023-02-20T11:36:47.025Z,7.00
2023-02-20T11:38:58.275Z,6.78
2023-02-20T11:41:06.192Z,7.10
2023-02-20T11:43:16.926Z,6.43
2023-02-20T11:45:25.224Z,6.35
2023-02-20T11:47:30.545Z,5.47
2023-02-20T11:49:34.873Z,1.95
2023-02-20T11:51:40.879Z,1.70
2023-02-20T11:53:44.361Z,1.70
2023-02-20T11:55:58.721Z,1.40
2023-02-20T11:58:04.108Z,1.67
2023-02-20T12:00:15.023Z,1.80
2023-02-20T12:02:26.086Z,1.85
2023-02-20T12:04:30.556Z,3.70
2023-02-20T12:06:43.387Z,5.53
2023-02-20T12:08:53.831Z,5.53
2023-02-20T12:11:04.078Z,6.10
2023-02-20T12:13:12.328Z,6.18
2023-02-20T12:15:22.954Z,4.00
2023-02-20T12:17:35.383Z,3.25
2023-02-20T12:19:48.489Z,1.60
2023-02-20T12:22:02.066Z,1.70
2023-02-20T12:24:28.137Z,1.80
2023-02-20T12:26:46.058Z,1.63
2023-02-20T12:28:57.689Z,1.70
2023-02-20T12:31:12.598Z,2.00
2023-02-20T12:33:32.505Z,1.80
2023-02-20T12:35:39.537Z,1.77
2023-02-20T12:37:51.931Z,1.60
2023-02-20T12:40:09.409Z,1.88
2023-02-20T12:42:24.828Z,1.95
2023-02-20T12:44:48.563Z,2.00
2023-02-20T12:47:00.257Z,2.00
2023-02-20T12:49:19.047Z,1.80
2023-02-20T12:51:30.726Z,2.00
2023-02-20T12:54:07.044Z,2.55
2023-02-20T12:56:25.405Z,1.85
2023-02-20T12:58:36.576Z,1.70
2023-02-20T13:00:42.275Z,1.85
2023-02-20T13:02:49.529Z,1.67
2023-02-20T13:04:58.087Z,1.73
2023-02-20T13:07:09.424Z,1.80
2023-02-20T13:09:20.292Z,1.77
2023-02-20T13:11:28.091Z,1.90
2023-02-20T13:13:40.116Z,1.80
2023-02-20T13:15:51.840Z,2.17
2023-02-20T13:18:03.680Z,2.13
2023-02-20T13:20:18.978Z,2.10
2023-02-20T13:22:23.392Z,2.28
2023-02-20T13:24:30.806Z,2.20
2023-02-20T13:26:49.444Z,1.83
2023-02-20T13:28:53.469Z,2.15
2023-02-20T13:31:14.292Z,2.10
2023-02-20T13:33:23.282Z,2.38
2023-02-20T13:35:47.874Z,2.10
2023-02-20T13:38:09.877Z,2.17
2023-02-20T13:40:38.003Z,2.08
2023-02-20T13:42:40.881Z,2.08
2023-02-20T13:44:46.967Z,1.85
2023-02-20T13:47:02.391Z,2.10
2023-02-20T13:49:08.835Z,2.05
2023-02-20T13:51:48.218Z,2.20
2023-02-20T13:53:54.501Z,2.38
2023-02-20T13:55:57.363Z,1.95
2023-02-20T13:58:05.993Z,2.20
2023-02-20T14:00:23.870Z,2.10
2023-02-20T14:02:30.258Z,2.40
2023-02-20T14:04:34.208Z,2.40
2023-02-20T14:06:57.974Z,2.20
2023-02-20T14:09:11.692Z,2.20
2023-02-20T14:11:24.826Z,2.45
2023-02-20T14:13:39.696Z,2.35
2023-02-20T14:15:49.842Z,2.58
2023-02-20T14:17:54.239Z,2.88
2023-02-20T14:20:13.407Z,2.47
2023-02-20T14:22:27.236Z,2.38
2023-02-20T14:24:31.436Z,2.60
2023-02-20T14:26:35.302Z,2.45
2023-02-20T14:28:46.994Z,2.40
2023-02-20T14:31:05.691Z,2.40
2023-02-20T14:33:24.306Z,2.45
2023-02-20T14:35:55.274Z,2.60
2023-02-20T14:38:08.155Z,2.42
2023-02-20T14:40:18.305Z,2.40
2023-02-20T14:42:24.834Z,2.50
2023-02-20T14:44:28.723Z,2.47
2023-02-20T14:46:34.761Z,2.40
2023-02-20T14:48:41.102Z,2.30
2023-02-20T14:50:43.901Z,2.45
2023-02-20T14:52:47.638Z,2.47
2023-02-20T14:55:01.464Z,2.45
2023-02-20T14:57:06.010Z,2.60
2023-02-20T14:59:28.208Z,2.33
2023-02-20T15:01:39.073Z,2.55
2023-02-20T15:03:42.306Z,2.33
2023-02-20T15:05:45.674Z,2.40
2023-02-20T15:07:49.218Z,2.33
2023-02-20T15:09:54.705Z,2.53
2023-02-20T15:11:59.330Z,2.42
2023-02-20T15:14:08.335Z,2.40
2023-02-20T15:16:21.709Z,2.28
2023-02-20T15:18:34.376Z,2.72
2023-02-20T15:20:41.657Z,2.28
2023-02-20T15:22:44.768Z,2.70
2023-02-20T15:24:47.658Z,2.30
2023-02-20T15:26:50.628Z,2.30
2023-02-20T15:29:14.377Z,2.88
2023-02-20T15:31:25.062Z,2.50
2023-02-20T15:33:28.799Z,2.72
2023-02-20T15:35:33.987Z,2.47
2023-02-20T15:37:38.970Z,2.85
2023-02-20T15:39:53.962Z,2.50
2023-02-20T15:41:57.953Z,2.55
2023-02-20T15:44:03.455Z,2.53
2023-02-20T15:46:14.741Z,2.55
2023-02-20T15:48:18.241Z,2.33
2023-02-20T15:50:22.190Z,2.60
2023-02-20T15:52:25.878Z,2.40
2023-02-20T15:54:29.263Z,2.47
2023-02-20T15:56:35.315Z,2.40
2023-02-20T15:58:42.168Z,2.65
2023-02-20T16:00:45.516Z,2.28
2023-02-20T16:02:49.934Z,2.72
2023-02-20T16:04:53.810Z,2.60
2023-02-20T16:06:56.683Z,2.47
2023-02-20T16:08:59.829Z,2.70
2023-02-20T16:11:03.174Z,2.83
2023-02-20T16:13:07.665Z,2.42
2023-02-20T16:15:16.020Z,2.17
2023-02-20T16:17:26.482Z,2.70
2023-02-20T16:19:42.162Z,2.83
2023-02-20T16:21:58.297Z,2.65
2023-02-20T16:24:02.367Z,2.40
2023-02-20T16:26:05.624Z,2.28
2023-02-20T16:28:09.062Z,2.83
2023-02-20T16:30:32.261Z,2.70
2023-02-20T16:32:36.558Z,2.65
2023-02-20T16:34:40.838Z,2.35
2023-02-20T16:36:43.708Z,2.63
2023-02-20T16:38:55.402Z,2.30
2023-02-20T16:40:59.584Z,2.50
2023-02-20T16:43:02.435Z,2.50
2023-02-20T16:45:09.049Z,2.60
2023-02-20T16:47:13.738Z,2.60
2023-02-20T16:49:17.489Z,2.50
2023-02-20T16:51:24.264Z,2.78
2023-02-20T16:53:32.309Z,2.55
2023-02-20T16:55:37.181Z,2.53
2023-02-20T16:57:40.031Z,2.72
2023-02-20T16:59:43.077Z,2.42
2023-02-20T17:01:46.103Z,2.75
2023-02-20T17:03:48.926Z,2.30
2023-02-20T17:05:58.165Z,2.83
2023-02-20T17:08:02.883Z,2.60
2023-02-20T17:10:06.988Z,2.40
2023-02-20T17:12:10.458Z,2.78
2023-02-20T17:14:14.004Z,2.85
2023-02-20T17:16:29.488Z,3.00
2023-02-20T17:18:33.798Z,2.35
2023-02-20T17:20:37.057Z,2.50
2023-02-20T17:22:42.416Z,2.43
2023-02-20T17:24:46.943Z,3.08
2023-02-20T17:26:49.808Z,2.83
2023-02-20T17:28:53.101Z,2.90
2023-02-20T17:30:56.199Z,2.93
2023-02-20T17:32:59.168Z,3.37
2023-02-20T17:35:02.025Z,2.90
2023-02-20T17:37:04.938Z,2.73
2023-02-20T17:39:07.723Z,2.77
2023-02-20T17:41:12.405Z,2.97
2023-02-20T17:43:15.620Z,3.00
2023-02-20T17:45:18.972Z,2.83
2023-02-20T17:47:22.361Z,2.97
2023-02-20T17:49:27.767Z,3.00
2023-02-20T17:51:30.825Z,2.87
2023-02-20T17:53:33.900Z,3.00
2023-02-20T17:55:37.150Z,3.20
2023-02-20T17:57:41.652Z,3.40
2023-02-20T17:59:44.597Z,3.00
2023-02-20T18:01:47.739Z,2.97
2023-02-20T18:03:50.629Z,3.53
2023-02-20T18:05:55.113Z,3.07
2023-02-20T18:07:58.040Z,2.80
2023-02-20T18:10:02.189Z,2.80
2023-02-20T18:12:07.741Z,3.20
2023-02-20T18:14:12.611Z,2.83
2023-02-20T18:16:16.541Z,2.80
2023-02-20T18:18:20.068Z,2.70
2023-02-20T18:20:22.869Z,3.10
2023-02-20T18:22:26.763Z,3.00
2023-02-20T18:24:30.556Z,3.07
2023-02-20T18:26:33.430Z,2.90
2023-02-20T18:28:36.271Z,3.07
2023-02-20T18:30:42.387Z,3.07
2023-02-20T18:32:45.370Z,3.47
2023-02-20T18:34:49.066Z,3.40
2023-02-20T18:36:52.399Z,3.47
2023-02-20T18:38:55.367Z,3.70
2023-02-20T18:40:58.835Z,3.70
2023-02-20T18:43:01.767Z,3.57
2023-02-20T18:45:05.181Z,3.30
2023-02-20T18:47:10.331Z,4.20
2023-02-20T18:49:13.298Z,5.07
2023-02-20T18:51:16.199Z,3.57
2023-02-20T18:53:19.462Z,3.60
2023-02-20T18:55:23.518Z,6.13
2023-02-20T18:57:26.380Z,3.83
2023-02-20T18:59:30.725Z,6.00
2023-02-20T19:01:41.715Z,7.03
2023-02-20T19:03:46.185Z,5.87
2023-02-20T19:05:51.445Z,6.30
2023-02-20T19:07:55.908Z,13.50
2023-02-20T19:09:59.523Z,14.50
2023-02-20T19:12:03.723Z,8.10
2023-02-20T19:14:06.603Z,8.77
2023-02-20T19:16:09.476Z,7.73
2023-02-20T19:18:12.369Z,8.27
2023-02-20T19:20:23.643Z,8.60
2023-02-20T19:22:27.027Z,8.07
2023-02-20T19:24:29.881Z,11.83
2023-02-20T19:26:32.711Z,8.63
2023-02-20T19:28:35.877Z,8.43
2023-02-20T19:30:38.803Z,8.23
2023-02-20T19:32:42.410Z,8.13
2023-02-20T19:34:55.978Z,8.47
2023-02-20T19:37:04.171Z,7.60
2023-02-20T19:39:07.051Z,9.30
2023-02-20T19:41:13.086Z,8.23
2023-02-20T19:43:16.133Z,8.50
2023-02-20T19:45:19.151Z,9.17
2023-02-20T19:47:22.230Z,8.90
2023-02-20T19:49:25.294Z,9.43
2023-02-20T19:51:31.086Z,8.70
2023-02-20T19:53:35.814Z,8.13
2023-02-20T19:55:51.439Z,8.97
2023-02-20T19:57:54.725Z,9.53
2023-02-20T19:59:57.612Z,8.30
2023-02-20T20:02:02.370Z,8.80
2023-02-20T20:04:05.262Z,9.27
2023-02-20T20:06:09.778Z,9.10
2023-02-20T20:08:12.713Z,9.53
2023-02-20T20:10:17.337Z,8.70
2023-02-20T20:12:37.801Z,8.70
2023-02-20T20:14:42.210Z,9.77
2023-02-20T20:16:45.018Z,8.10
2023-02-20T20:18:47.859Z,7.90
2023-02-20T20:20:51.022Z,8.63
2023-02-20T20:22:56.452Z,8.27
2023-02-20T20:24:59.743Z,8.60
2023-02-20T20:27:04.120Z,8.50
2023-02-20T20:29:07.853Z,7.77
2023-02-20T20:31:10.796Z,8.33
2023-02-20T20:33:13.641Z,10.47
2023-02-20T20:35:16.863Z,9.87
2023-02-20T20:37:21.288Z,9.67
2023-02-20T20:39:27.449Z,9.43
2023-02-20T20:41:36.107Z,9.33
2023-02-20T20:43:48.177Z,10.67
2023-02-20T20:45:51.137Z,10.20
2023-02-20T20:47:54.118Z,9.97
2023-02-20T20:49:57.409Z,10.70
2023-02-20T20:52:00.242Z,10.03
2023-02-20T20:54:07.334Z,10.90
2023-02-20T20:56:11.078Z,11.70
2023-02-20T20:58:13.896Z,15.07
2023-02-20T21:00:25.218Z,14.33
2023-02-20T21:02:29.783Z,13.33
2023-02-20T21:04:32.814Z,13.57
2023-02-20T21:06:36.873Z,14.63
2023-02-20T21:08:39.859Z,14.10
2023-02-20T21:10:42.736Z,14.90
2023-02-20T21:12:45.992Z,15.67
2023-02-20T21:14:48.828Z,16.13
2023-02-20T21:16:53.083Z,17.23
2023-02-20T21:18:55.871Z,18.33
2023-02-20T21:20:58.957Z,18.17
2023-02-20T21:23:04.818Z,19.50
2023-02-20T21:25:09.033Z,18.97
2023-02-20T21:27:11.845Z,20.97
2023-02-20T21:29:14.741Z,18.67
2023-02-20T21:31:20.484Z,18.17
2023-02-20T21:33:24.773Z,19.20
2023-02-20T21:35:27.926Z,19.33
2023-02-20T21:37:30.977Z,19.90
2023-02-20T21:39:33.900Z,17.93
2023-02-20T21:41:54.587Z,21.07
2023-02-20T21:44:15.321Z,19.70
2023-02-20T21:46:19.724Z,18.90
2023-02-20T21:48:24.051Z,16.97
2023-02-20T21:50:27.621Z,16.50
2023-02-20T21:52:36.844Z,16.00
2023-02-20T21:54:40.996Z,18.00
2023-02-20T21:56:44.378Z,18.97
2023-02-20T21:59:01.467Z,19.83
2023-02-20T22:01:03.267Z,20.77
2023-02-20T22:03:05.476Z,20.40
2023-02-20T22:05:10.213Z,20.27
2023-02-20T22:07:30.865Z,19.43
2023-02-20T22:09:51.204Z,20.77
2023-02-20T22:12:11.671Z,21.70
2023-02-20T22:14:31.876Z,20.53
2023-02-20T22:16:52.401Z,21.90
2023-02-20T22:19:13.581Z,22.83
2023-02-20T22:21:40.103Z,21.80
2023-02-20T22:24:00.750Z,21.60
2023-02-20T22:26:21.330Z,22.13
2023-02-20T22:28:42.023Z,24.77
2023-02-20T22:31:04.142Z,24.83
2023-02-20T22:33:24.534Z,23.73
2023-02-20T22:35:45.111Z,24.80
2023-02-20T22:38:06.986Z,26.20
2023-02-20T22:40:28.530Z,24.70
2023-02-20T22:42:49.074Z,27.23
2023-02-20T22:45:09.875Z,26.90
2023-02-20T22:47:30.189Z,29.33
2023-02-20T22:49:50.636Z,28.63
2023-02-20T22:52:11.049Z,27.13
2023-02-20T22:54:32.930Z,29.23
2023-02-20T22:56:53.350Z,29.63
2023-02-20T22:59:13.757Z,28.93
2023-02-20T23:01:34.524Z,28.70
2023-02-20T23:03:57.268Z,29.07
2023-02-20T23:06:19.636Z,30.23
2023-02-20T23:08:40.672Z,27.47
2023-02-20T23:11:02.807Z,29.27
2023-02-20T23:13:23.752Z,28.03
2023-02-20T23:15:46.434Z,28.27
2023-02-20T23:18:08.353Z,28.87
2023-02-20T23:20:33.433Z,28.77
2023-02-20T23:22:53.696Z,28.60
2023-02-20T23:25:14.363Z,26.53
2023-02-20T23:27:36.399Z,25.90
2023-02-20T23:29:59.791Z,26.60
2023-02-20T23:32:22.427Z,25.37
2023-02-20T23:34:43.452Z,25.90
2023-02-20T23:37:07.979Z,24.73
2023-02-20T23:39:28.303Z,23.33
2023-02-20T23:41:48.596Z,25.80
2023-02-20T23:44:10.450Z,24.80
2023-02-20T23:46:31.107Z,25.03
2023-02-20T23:48:51.634Z,26.87
2023-02-20T23:51:11.973Z,25.40
2023-02-20T23:53:32.540Z,27.33
2023-02-20T23:55:52.709Z,27.33
2023-02-20T23:58:12.945Z,28.00
